createdAt,value
2018-04-19T00:03:43.887Z,20.87
2018-04-19T00:07:46.540Z,24.50
2018-04-19T00:11:49.251Z,23.67
2018-04-19T00:15:51.911Z,22.27
2018-04-19T00:19:54.577Z,24.20
2018-04-19T00:23:57.191Z,22.93
2018-04-19T00:27:59.841Z,23.47
2018-04-19T00:32:02.555Z,26.83
2018-04-19T00:36:05.204Z,24.73
2018-04-19T00:40:08.581Z,27.07
2018-04-19T00:44:11.232Z,24.93
2018-04-19T00:48:13.883Z,25.33
2018-04-19T00:52:17.300Z,27.27
2018-04-19T00:56:20.727Z,26.00
2018-04-19T01:00:23.384Z,26.67
2018-04-19T01:04:26.864Z,24.43
2018-04-19T01:08:29.610Z,24.27
2018-04-19T01:12:32.327Z,23.50
2018-04-19T01:16:34.941Z,22.57
2018-04-19T01:20:37.600Z,22.80
2018-04-19T01:24:40.304Z,24.27
2018-04-19T01:28:42.952Z,23.70
2018-04-19T01:32:45.640Z,23.30
2018-04-19T01:36:48.256Z,22.33
2018-04-19T01:40:50.900Z,24.60
2018-04-19T01:44:54.320Z,24.87
2018-04-19T01:48:56.967Z,25.17
2018-04-19T01:52:59.677Z,24.67
2018-04-19T01:57:03.055Z,20.83
2018-04-19T02:01:05.708Z,25.37
2018-04-19T02:05:08.361Z,25.47
2018-04-19T02:09:11.884Z,25.10
2018-04-19T02:13:15.311Z,28.33
2018-04-19T02:17:18.747Z,25.23
2018-04-19T02:21:21.403Z,23.80
2018-04-19T02:25:24.063Z,23.00
2018-04-19T02:29:26.747Z,23.30
2018-04-19T02:33:30.179Z,23.73
2018-04-19T02:37:32.832Z,24.97
2018-04-19T02:41:35.491Z,25.10
2018-04-19T02:45:38.145Z,26.03
2018-04-19T02:49:40.801Z,24.57
2018-04-19T02:53:43.421Z,30.17
2018-04-19T02:57:46.139Z,24.20
2018-04-19T03:01:48.852Z,27.63
2018-04-19T03:05:51.568Z,26.00
2018-04-19T03:09:55.101Z,25.30
2018-04-19T03:13:57.715Z,25.00
2018-04-19T03:18:00.370Z,26.23
2018-04-19T03:22:03.020Z,28.97
2018-04-19T03:26:05.676Z,24.40
2018-04-19T03:30:08.342Z,22.47
2018-04-19T03:34:11.008Z,25.80
2018-04-19T03:38:14.438Z,24.17
2018-04-19T03:42:17.087Z,25.70
2018-04-19T03:46:19.740Z,27.00
2018-04-19T03:50:22.400Z,26.03
2018-04-19T03:54:25.011Z,22.07
2018-04-19T03:58:27.678Z,23.43
2018-04-19T04:02:30.327Z,24.27
2018-04-19T04:06:32.980Z,25.23
2018-04-19T04:10:35.647Z,27.13
2018-04-19T04:14:38.260Z,24.07
2018-04-19T04:18:52.741Z,26.60
2018-04-19T04:23:06.271Z,26.57
2018-04-19T04:27:08.929Z,26.33
2018-04-19T04:31:11.625Z,28.43
2018-04-19T04:35:14.270Z,27.00
2018-04-19T04:39:17.677Z,29.23
2018-04-19T04:43:20.335Z,29.40
2018-04-19T04:47:22.989Z,28.13
2018-04-19T04:51:25.642Z,27.57
2018-04-19T04:55:28.296Z,22.90
2018-04-19T04:59:30.908Z,26.03
2018-04-19T05:03:33.616Z,26.23
2018-04-19T05:07:37.045Z,26.13
2018-04-19T05:11:39.700Z,26.00
2018-04-19T05:15:42.361Z,29.03
2018-04-19T05:19:44.982Z,29.57
2018-04-19T05:23:47.701Z,30.13
2018-04-19T05:27:50.363Z,27.57
2018-04-19T05:31:53.022Z,27.27
2018-04-19T05:35:55.808Z,28.00
2018-04-19T05:39:58.423Z,27.43
2018-04-19T05:44:01.084Z,25.97
2018-04-19T05:48:03.741Z,29.40
2018-04-19T05:52:06.407Z,28.67
2018-04-19T05:56:09.834Z,28.70
2018-04-19T06:00:12.448Z,29.37
2018-04-19T06:04:15.104Z,29.50
2018-04-19T06:08:17.773Z,29.57
2018-04-19T06:12:21.200Z,28.97
2018-04-19T06:16:23.879Z,30.27
2018-04-19T06:20:27.250Z,30.93
2018-04-19T06:24:29.903Z,32.87
2018-04-19T06:28:32.561Z,31.27
2018-04-19T06:32:35.982Z,32.00
2018-04-19T06:36:38.648Z,31.37
2018-04-19T06:40:42.019Z,32.53
2018-04-19T06:44:44.673Z,32.73
2018-04-19T06:48:47.328Z,28.63
2018-04-19T06:52:50.749Z,28.47
2018-04-19T06:56:54.180Z,28.33
2018-04-19T07:00:56.792Z,29.60
2018-04-19T07:04:59.502Z,27.37
2018-04-19T07:09:02.161Z,27.87
2018-04-19T07:13:04.827Z,27.23
2018-04-19T07:17:07.488Z,25.17
2018-04-19T07:21:10.101Z,26.03
2018-04-19T07:25:12.789Z,22.83
2018-04-19T07:29:15.457Z,24.17
2018-04-19T07:33:18.892Z,22.60
2018-04-19T07:37:21.543Z,22.63
2018-04-19T07:41:24.991Z,20.97
2018-04-19T07:45:27.711Z,20.20
2018-04-19T07:49:30.392Z,19.60
2018-04-19T07:53:33.062Z,19.87
2018-04-19T07:57:35.752Z,18.37
2018-04-19T08:01:38.384Z,18.67
2018-04-19T08:05:41.166Z,19.53
2018-04-19T08:09:43.835Z,19.37
2018-04-19T08:13:46.516Z,18.90
2018-04-19T08:17:49.181Z,16.50
2018-04-19T08:21:51.851Z,17.53
2018-04-19T08:25:55.285Z,16.10
2018-04-19T08:29:57.965Z,14.53
2018-04-19T08:34:00.655Z,14.23
2018-04-19T08:38:06.046Z,15.53
2018-04-19T08:42:08.806Z,15.30
2018-04-19T08:46:11.475Z,14.73
2018-04-19T08:50:14.929Z,13.90
2018-04-19T08:54:17.621Z,14.13
2018-04-19T08:58:20.286Z,12.70
2018-04-19T09:02:22.953Z,13.33
2018-04-19T09:06:25.758Z,12.70
2018-04-19T09:10:28.459Z,14.17
2018-04-19T09:14:31.129Z,13.70
2018-04-19T09:18:33.876Z,13.70
2018-04-19T09:22:36.615Z,14.03
2018-04-19T09:26:39.301Z,14.37
2018-04-19T09:30:41.915Z,14.27
2018-04-19T09:34:44.568Z,13.83
2018-04-19T09:38:47.983Z,14.07
2018-04-19T09:42:50.708Z,14.77
2018-04-19T09:46:53.366Z,13.37
2018-04-19T09:50:55.985Z,13.03
2018-04-19T09:54:58.634Z,11.60
2018-04-19T09:59:13.174Z,11.27
2018-04-19T10:03:18.814Z,9.03
2018-04-19T10:07:21.473Z,9.90
2018-04-19T10:11:24.131Z,9.10
2018-04-19T10:15:27.514Z,10.13
2018-04-19T10:19:30.941Z,10.23
2018-04-19T10:23:34.418Z,10.30
2018-04-19T10:27:37.123Z,9.10
2018-04-19T10:31:39.843Z,8.13
2018-04-19T10:35:42.635Z,8.10
2018-04-19T10:39:45.296Z,7.07
2018-04-19T10:43:48.737Z,7.40
2018-04-19T10:47:51.438Z,6.10
2018-04-19T10:51:54.178Z,6.47
2018-04-19T10:55:57.636Z,6.77
2018-04-19T11:00:00.304Z,7.93
2018-04-19T11:04:02.974Z,11.83
2018-04-19T11:08:06.400Z,12.67
2018-04-19T11:12:09.061Z,13.37
2018-04-19T11:16:12.449Z,12.70
2018-04-19T11:20:15.108Z,11.77
2018-04-19T11:24:17.764Z,13.13
2018-04-19T11:28:20.416Z,13.63
2018-04-19T11:32:23.075Z,14.33
2018-04-19T11:36:26.449Z,14.37
2018-04-19T11:40:29.105Z,13.33
2018-04-19T11:44:31.759Z,15.47
2018-04-19T11:48:34.413Z,14.20
2018-04-19T11:52:37.072Z,13.90
2018-04-19T11:56:39.693Z,12.67
2018-04-19T12:00:42.355Z,14.10
2018-04-19T12:04:45.012Z,12.77
2018-04-19T12:08:47.673Z,13.40
2018-04-19T12:12:51.095Z,11.63
2018-04-19T12:16:53.787Z,10.23
2018-04-19T12:20:56.551Z,9.90
2018-04-19T12:24:59.208Z,9.77
2018-04-19T12:29:01.876Z,9.77
2018-04-19T12:33:04.524Z,10.40
2018-04-19T12:37:07.136Z,12.30
2018-04-19T12:41:09.792Z,12.20
2018-04-19T12:45:12.449Z,13.63
2018-04-19T12:49:15.157Z,13.00
2018-04-19T12:53:18.574Z,13.97
2018-04-19T12:57:21.182Z,14.40
2018-04-19T13:01:24.609Z,14.30
2018-04-19T13:05:27.328Z,13.77
2018-04-19T13:09:29.976Z,13.63
2018-04-19T13:13:32.629Z,12.77
2018-04-19T13:17:35.241Z,12.50
2018-04-19T13:21:37.901Z,13.57
2018-04-19T13:25:41.458Z,12.97
2018-04-19T13:29:44.117Z,14.53
2018-04-19T13:33:46.772Z,11.37
2018-04-19T13:37:50.151Z,11.63
2018-04-19T13:41:52.803Z,13.17
2018-04-19T13:45:55.460Z,11.97
2018-04-19T13:49:58.990Z,11.50
2018-04-19T13:54:01.657Z,11.63
2018-04-19T13:58:05.037Z,9.60
2018-04-19T14:02:07.701Z,8.70
2018-04-19T14:06:10.352Z,7.80
2018-04-19T14:10:13.770Z,7.03
2018-04-19T14:14:16.430Z,8.60
2018-04-19T14:18:19.868Z,9.47
2018-04-19T14:22:22.517Z,8.80
2018-04-19T14:26:25.175Z,7.97
2018-04-19T14:30:27.831Z,9.63
2018-04-19T14:34:30.491Z,9.00
2018-04-19T14:38:33.860Z,9.27
2018-04-19T14:42:36.614Z,8.00
2018-04-19T14:46:39.285Z,9.90
2018-04-19T14:50:42.773Z,8.70
2018-04-19T14:54:45.474Z,8.87
2018-04-19T14:58:48.861Z,8.90
2018-04-19T15:02:51.627Z,7.93
2018-04-19T15:06:54.311Z,8.70
2018-04-19T15:10:57.728Z,8.57
2018-04-19T15:15:00.374Z,7.23
2018-04-19T15:19:03.068Z,6.63
2018-04-19T15:23:05.724Z,5.40
2018-04-19T15:27:08.377Z,7.30
2018-04-19T15:31:11.031Z,6.70
2018-04-19T15:35:13.747Z,5.37
2018-04-19T15:39:17.138Z,5.57
2018-04-19T15:43:19.817Z,6.33
2018-04-19T15:47:22.488Z,8.60
2018-04-19T15:51:25.918Z,10.23
2018-04-19T15:55:28.659Z,10.87
2018-04-19T15:59:31.330Z,11.20
2018-04-19T16:03:34.006Z,10.77
2018-04-19T16:07:36.665Z,12.07
2018-04-19T16:11:39.325Z,11.97
2018-04-19T16:15:42.153Z,13.57
2018-04-19T16:19:44.819Z,15.77
2018-04-19T16:23:48.255Z,16.10
2018-04-19T16:27:51.041Z,16.23
2018-04-19T16:31:53.708Z,15.00
2018-04-19T16:35:57.160Z,15.53
2018-04-19T16:39:59.835Z,17.07
2018-04-19T16:44:03.270Z,15.93
2018-04-19T16:48:05.986Z,15.70
2018-04-19T16:52:09.435Z,16.40
2018-04-19T16:56:12.217Z,18.57
2018-04-19T17:00:14.918Z,18.03
2018-04-19T17:04:17.541Z,17.53
2018-04-19T17:08:20.208Z,18.23
2018-04-19T17:12:22.865Z,18.07
2018-04-19T17:16:25.531Z,17.80
2018-04-19T17:20:28.945Z,18.60
2018-04-19T17:24:32.320Z,18.07
2018-04-19T17:28:34.982Z,17.07
2018-04-19T17:32:37.645Z,15.83
2018-04-19T17:36:40.299Z,15.00
2018-04-19T17:40:43.004Z,13.50
2018-04-19T17:44:46.380Z,11.77
2018-04-19T17:48:49.835Z,11.27
2018-04-19T17:52:52.484Z,11.27
2018-04-19T17:56:55.192Z,11.83
2018-04-19T18:00:58.608Z,12.47
2018-04-19T18:05:01.991Z,13.27
2018-04-19T18:09:04.670Z,14.70
2018-04-19T18:13:07.324Z,15.50
2018-04-19T18:17:09.970Z,15.23
2018-04-19T18:21:13.397Z,16.83
2018-04-19T18:25:16.009Z,16.87
2018-04-19T18:29:18.663Z,16.80
2018-04-19T18:33:22.087Z,17.63
2018-04-19T18:37:24.741Z,18.03
2018-04-19T18:41:27.397Z,18.27
2018-04-19T18:45:30.279Z,19.17
2018-04-19T18:49:32.964Z,18.87
2018-04-19T18:53:35.616Z,17.67
2018-04-19T18:57:39.031Z,18.70
2018-04-19T19:01:42.855Z,19.77
2018-04-19T19:05:46.430Z,19.73
2018-04-19T19:09:49.189Z,19.23
2018-04-19T19:13:51.953Z,20.80
2018-04-19T19:18:07.235Z,19.40
2018-04-19T19:22:09.892Z,20.33
2018-04-19T19:26:13.275Z,22.33
2018-04-19T19:30:16.413Z,21.63
2018-04-19T19:34:19.867Z,20.47
2018-04-19T19:38:22.531Z,20.53
2018-04-19T19:42:25.261Z,22.27
2018-04-19T19:46:27.871Z,21.17
2018-04-19T19:50:30.526Z,23.10
2018-04-19T19:54:33.228Z,23.87
2018-04-19T19:58:36.759Z,24.10
2018-04-19T20:02:39.416Z,24.73
2018-04-19T20:06:42.029Z,24.70
2018-04-19T20:10:44.680Z,23.80
2018-04-19T20:14:47.384Z,24.87
2018-04-19T20:18:50.088Z,24.87
2018-04-19T20:22:52.794Z,24.60
2018-04-19T20:26:56.228Z,25.40
2018-04-19T20:30:58.886Z,24.57
2018-04-19T20:35:01.579Z,24.47
2018-04-19T20:39:05.012Z,26.07
2018-04-19T20:43:07.668Z,23.57
2018-04-19T20:47:10.283Z,23.50
2018-04-19T20:51:12.939Z,22.90
2018-04-19T20:55:15.593Z,22.53
2018-04-19T20:59:18.245Z,23.70
2018-04-19T21:03:21.656Z,24.10
2018-04-19T21:07:24.270Z,23.43
2018-04-19T21:11:26.926Z,22.77
2018-04-19T21:15:29.635Z,23.37
2018-04-19T21:19:32.284Z,23.67
2018-04-19T21:23:34.940Z,24.70
2018-04-19T21:27:37.549Z,23.77
2018-04-19T21:31:40.204Z,22.67
2018-04-19T21:35:43.619Z,24.30
2018-04-19T21:39:46.274Z,22.80
2018-04-19T21:43:48.932Z,23.70
2018-04-19T21:47:51.545Z,23.67
2018-04-19T21:51:54.197Z,23.50
2018-04-19T21:55:56.852Z,24.93
2018-04-19T21:59:59.510Z,22.63
2018-04-19T22:04:02.168Z,23.40
2018-04-19T22:08:04.776Z,23.33
2018-04-19T22:12:08.192Z,25.13
2018-04-19T22:16:10.859Z,25.53
2018-04-19T22:20:13.548Z,24.23
2018-04-19T22:24:16.205Z,24.17
2018-04-19T22:28:18.819Z,23.87
2018-04-19T22:32:21.480Z,25.53
2018-04-19T22:36:24.932Z,26.20
2018-04-19T22:40:28.348Z,25.17
2018-04-19T22:44:30.999Z,24.13
2018-04-19T22:48:33.660Z,24.80
2018-04-19T22:52:36.309Z,24.07
2018-04-19T22:56:39.729Z,24.67
2018-04-19T23:00:42.381Z,25.23
2018-04-19T23:04:45.032Z,24.57
2018-04-19T23:08:47.693Z,23.80
2018-04-19T23:12:50.297Z,24.50
2018-04-19T23:16:52.980Z,26.47
2018-04-19T23:20:55.635Z,24.17
2018-04-19T23:24:59.062Z,23.13
2018-04-19T23:29:01.740Z,24.47
2018-04-19T23:33:04.368Z,24.27
2018-04-19T23:37:07.016Z,23.90
2018-04-19T23:41:10.435Z,22.87
2018-04-19T23:45:13.080Z,23.23
2018-04-19T23:49:15.737Z,22.83
2018-04-19T23:53:18.355Z,24.17
2018-04-19T23:57:21.011Z,24.17
